Time;durP1;ratioP1;P1;durP2;ratioP2;P2;SDS_P1;SDS_P2;PMS_P1;PMS_P2;Temp;Humidity;BMP_temperature;BMP_pressure;BME280_temperature;BME280_humidity;BME280_pressure;Samples;Min_cycle;Max_cycle;Signal;HPM_P1;HPM_P2
2022/07/23 00:00:10;;;;;;;13.48;7.20;;;;;;;17.39;nan;99446.00;5063288;28;20716;-62
2022/07/23 00:02:35;;;;;;;15.60;7.75;;;;;;;17.37;nan;99445.34;5028980;28;20081;-61
2022/07/23 00:05:00;;;;;;;12.68;7.53;;;;;;;17.35;nan;99450.91;5064795;28;20150;-64
2022/07/23 00:07:25;;;;;;;16.92;7.72;;;;;;;17.33;nan;99444.81;5065259;28;20042;-63
2022/07/23 00:09:50;;;;;;;18.75;7.60;;;;;;;17.33;nan;99444.81;5063043;28;20044;-61
2022/07/23 00:12:14;;;;;;;14.13;6.80;;;;;;;17.30;nan;99449.66;5063917;28;20494;-61
2022/07/23 00:14:39;;;;;;;12.75;7.50;;;;;;;17.28;nan;99443.56;5064689;28;20498;-62
2022/07/23 00:17:10;;;;;;;10.88;7.10;;;;;;;17.30;nan;99441.56;5063032;28;20039;-63
2022/07/23 00:28:06;;;;;;;11.93;7.60;;;;;;;17.25;nan;99447.44;4892440;29;20047;-61
2022/07/23 00:30:32;;;;;;;12.30;6.95;;;;;;;17.11;nan;99448.00;4858158;29;20132;-60
2022/07/23 00:33:03;;;;;;;14.13;6.60;;;;;;;17.10;nan;99448.16;4835541;29;20080;-62
2022/07/23 00:35:31;;;;;;;14.63;7.95;;;;;;;17.04;nan;99449.66;4839388;29;20056;-61
2022/07/23 00:37:57;;;;;;;15.93;8.27;;;;;;;16.99;nan;99443.88;4858651;29;20076;-61
2022/07/23 00:40:23;;;;;;;19.50;7.63;;;;;;;16.96;nan;99445.00;4862208;29;20573;-60
2022/07/23 00:42:47;;;;;;;12.95;7.57;;;;;;;16.94;nan;99449.69;4862396;29;20136;-62
2022/07/23 00:45:13;;;;;;;15.18;8.45;;;;;;;16.92;nan;99454.41;4861677;29;20192;-62
2022/07/23 00:47:38;;;;;;;12.73;7.63;;;;;;;16.90;nan;99442.94;4861997;29;20048;-62
2022/07/23 00:50:05;;;;;;;11.90;7.93;;;;;;;16.89;nan;99445.78;4861771;29;20052;-61
2022/07/23 00:52:31;;;;;;;12.57;7.22;;;;;;;16.86;nan;99452.31;4861489;29;20048;-61
2022/07/23 00:54:56;;;;;;;15.75;7.43;;;;;;;16.84;nan;99442.69;4861862;29;20056;-62
2022/07/23 00:57:22;;;;;;;15.93;8.27;;;;;;;16.81;nan;99457.34;4861284;29;20516;-61
2022/07/23 00:59:46;;;;;;;13.52;7.85;;;;;;;16.81;nan;99459.19;4861468;29;20615;-61
2022/07/23 01:02:11;;;;;;;12.52;7.78;;;;;;;16.80;nan;99458.34;4861422;29;20567;-61
2022/07/23 01:04:36;;;;;;;13.30;7.30;;;;;;;16.80;nan;99461.03;4866261;29;20062;-62
2022/07/23 01:07:01;;;;;;;14.95;7.55;;;;;;;16.80;nan;99461.03;4926127;28;20053;-62
2022/07/23 01:09:26;;;;;;;13.48;7.63;;;;;;;16.80;nan;99446.72;4999929;28;20511;-61
2022/07/23 01:11:54;;;;;;;12.18;7.35;;;;;;;16.78;nan;99460.34;5017870;28;20595;-60
2022/07/23 01:14:19;;;;;;;12.35;7.10;;;;;;;16.79;nan;99459.34;4999830;28;20500;-62
2022/07/23 01:16:45;;;;;;;13.32;7.82;;;;;;;16.78;nan;99460.34;5017723;28;20068;-66
2022/07/23 01:19:10;;;;;;;17.77;7.63;;;;;;;16.77;nan;99458.63;5016359;28;20053;-68
2022/07/23 01:21:44;;;;;;;13.85;7.07;;;;;;;16.78;nan;99452.25;5017189;28;20605;-69
2022/07/23 01:24:11;;;;;;;14.90;7.80;;;;;;;16.78;nan;99454.09;4999692;28;20053;-70
2022/07/23 01:26:44;;;;;;;20.45;7.78;;;;;;;16.83;nan;99451.78;5000081;28;20033;-70
2022/07/23 01:29:10;;;;;;;15.57;7.43;;;;;;;16.80;nan;99452.09;5008529;28;20060;-68
2022/07/23 01:31:35;;;;;;;14.70;6.95;;;;;;;16.81;nan;99451.13;5019377;28;20076;-67
2022/07/23 01:34:00;;;;;;;12.30;7.07;;;;;;;16.82;nan;99464.41;5019069;28;20072;-66
2022/07/23 01:36:25;;;;;;;12.35;7.30;;;;;;;16.83;nan;99452.63;5002434;28;20511;-66
2022/07/23 01:38:50;;;;;;;15.57;7.45;;;;;;;16.83;nan;99455.31;5002332;28;20510;-66
2022/07/23 01:41:16;;;;;;;15.13;7.60;;;;;;;16.83;nan;99451.78;5003660;28;20044;-73
2022/07/23 01:43:41;;;;;;;19.00;7.57;;;;;;;16.84;nan;99450.78;5019627;28;20047;-72
2022/07/23 01:46:06;;;;;;;12.75;7.60;;;;;;;16.83;nan;99451.78;5018986;28;20048;-71
2022/07/23 01:48:37;;;;;;;11.48;6.50;;;;;;;16.82;nan;99455.47;5019137;28;20040;-66
2022/07/23 01:51:22;;;;;;;17.48;7.20;;;;;;;16.82;nan;99450.09;5018273;28;20585;-65
2022/07/23 01:54:00;;;;;;;10.60;7.00;;;;;;;16.81;nan;99454.66;5018495;28;20481;-65
2022/07/23 01:56:24;;;;;;;17.42;7.15;;;;;;;16.80;nan;99449.41;5018870;28;20448;-72
2022/07/23 01:58:50;;;;;;;14.75;8.07;;;;;;;16.81;nan;99441.19;5036590;28;20036;-70
2022/07/23 02:01:15;;;;;;;14.82;6.78;;;;;;;16.84;nan;99456.16;5018822;28;20048;-63
2022/07/23 02:03:40;;;;;;;14.75;7.88;;;;;;;16.88;nan;99449.47;5018732;28;20407;-64
2022/07/23 02:06:05;;;;;;;13.38;6.72;;;;;;;16.93;nan;99439.09;5036662;28;20457;-63
2022/07/23 02:08:30;;;;;;;11.30;6.07;;;;;;;16.97;nan;99437.78;5036421;28;20048;-62
2022/07/23 02:10:55;;;;;;;14.40;7.13;;;;;;;17.03;nan;99445.25;5018775;28;20554;-64
2022/07/23 02:13:20;;;;;;;21.35;7.93;;;;;;;17.08;nan;99444.78;5036247;28;20574;-63
2022/07/23 02:15:46;;;;;;;14.32;6.70;;;;;;;17.12;nan;99446.16;5018454;28;20056;-65
2022/07/23 02:18:11;;;;;;;11.02;7.22;;;;;;;17.19;nan;99447.22;5018349;28;20458;-64
2022/07/23 02:20:38;;;;;;;15.57;7.10;;;;;;;17.25;nan;99452.00;5018190;28;20407;-65
2022/07/23 02:23:03;;;;;;;11.15;6.93;;;;;;;17.31;nan;99451.34;5035997;28;20086;-64
2022/07/23 02:25:28;;;;;;;11.55;7.10;;;;;;;17.39;nan;99448.72;5002193;28;20491;-65
2022/07/23 02:27:58;;;;;;;11.20;6.90;;;;;;;17.47;nan;99451.47;5019040;28;20538;-64
2022/07/23 02:30:23;;;;;;;9.75;6.28;;;;;;;17.56;nan;99455.91;5036547;28;20087;-64
2022/07/23 02:32:48;;;;;;;13.55;6.55;;;;;;;17.62;nan;99451.72;5035935;28;20045;-64
2022/07/23 02:35:13;;;;;;;12.90;7.07;;;;;;;17.69;nan;99459.06;5039213;28;20044;-64
2022/07/23 02:37:39;;;;;;;9.00;6.65;;;;;;;17.79;nan;99448.16;5041518;28;20498;-62
2022/07/23 02:40:04;;;;;;;13.63;7.45;;;;;;;17.89;nan;99453.44;5076251;28;20826;-62
2022/07/23 02:42:30;;;;;;;20.10;7.88;;;;;;;17.98;nan;99455.16;5058098;28;20442;-62
2022/07/23 02:44:55;;;;;;;12.55;6.93;;;;;;;18.08;nan;99448.63;5040843;28;20118;-61
2022/07/23 02:47:20;;;;;;;11.75;6.95;;;;;;;18.19;nan;99452.03;5075810;28;20494;-61
2022/07/23 02:49:45;;;;;;;18.55;7.03;;;;;;;18.29;nan;99453.59;5057612;28;20043;-62
2022/07/23 02:52:10;;;;;;;13.50;6.82;;;;;;;18.38;nan;99463.44;5040457;28;20066;-64
2022/07/23 02:54:35;;;;;;;12.93;7.35;;;;;;;18.46;nan;99457.22;5057487;28;20046;-63
2022/07/23 02:57:00;;;;;;;18.63;7.75;;;;;;;18.54;nan;99456.38;5057465;28;20035;-64
2022/07/23 02:59:25;;;;;;;16.75;8.23;;;;;;;18.61;nan;99457.47;5039758;28;20043;-63
2022/07/23 03:01:50;;;;;;;12.70;7.55;;;;;;;18.72;nan;99454.44;5033571;28;20048;-64
2022/07/23 03:04:16;;;;;;;16.63;7.45;;;;;;;18.84;nan;99466.63;5033318;28;20119;-65
2022/07/23 03:06:41;;;;;;;11.98;7.03;;;;;;;18.97;nan;99463.41;5033333;28;20074;-64
2022/07/23 03:09:06;;;;;;;15.13;7.30;;;;;;;19.08;nan;99460.38;5017684;28;20039;-64
2022/07/23 03:11:31;;;;;;;13.40;7.00;;;;;;;19.18;nan;99464.63;5026133;28;20138;-64
2022/07/23 03:13:56;;;;;;;14.48;7.10;;;;;;;19.23;nan;99470.34;5052043;28;20912;-64
2022/07/23 03:16:21;;;;;;;12.32;7.85;;;;;;;19.28;nan;99463.59;5046891;28;20779;-63
2022/07/23 03:18:45;;;;;;;15.07;7.45;;;;;;;19.34;nan;99461.06;5032191;28;20040;-63
2022/07/23 03:21:10;;;;;;;13.43;7.05;;;;;;;19.41;nan;99463.94;5013718;28;20467;-60
2022/07/23 03:23:36;;;;;;;15.25;7.32;;;;;;;19.49;nan;99459.41;5042437;28;20048;-65
2022/07/23 03:26:00;;;;;;;11.45;6.60;;;;;;;19.64;nan;99467.63;5035158;28;20052;-66
2022/07/23 03:28:25;;;;;;;15.75;7.05;;;;;;;19.75;nan;99467.28;5032858;28;20049;-71
2022/07/23 03:30:50;;;;;;;18.50;6.90;;;;;;;19.87;nan;99470.47;5049721;28;20044;-72
2022/07/23 03:33:16;;;;;;;13.23;6.65;;;;;;;19.98;nan;99480.91;5036819;28;20052;-67
2022/07/23 03:35:41;;;;;;;10.00;6.65;;;;;;;20.12;nan;99466.66;5029550;28;20039;-68
2022/07/23 03:38:15;;;;;;;11.07;6.80;;;;;;;20.27;nan;99470.34;5038064;28;20050;-70
2022/07/23 03:40:40;;;;;;;15.10;7.20;;;;;;;20.37;nan;99472.00;5056954;28;20041;-72
2022/07/23 03:43:05;;;;;;;12.75;7.25;;;;;;;20.48;nan;99477.88;5044369;28;20045;-67
2022/07/23 03:45:30;;;;;;;8.40;6.63;;;;;;;20.62;nan;99463.59;5035778;28;20043;-73
2022/07/23 03:47:55;;;;;;;8.38;6.18;;;;;;;20.79;nan;99471.59;5032970;28;20387;-68
2022/07/23 03:50:20;;;;;;;14.07;6.57;;;;;;;20.90;nan;99471.19;5032321;28;20040;-67
2022/07/23 03:52:45;;;;;;;10.30;6.30;;;;;;;20.98;nan;99471.16;5045286;28;20048;-65
2022/07/23 03:55:10;;;;;;;12.95;7.25;;;;;;;21.07;nan;99471.94;5012731;28;20047;-65
2022/07/23 03:57:35;;;;;;;13.75;8.88;;;;;;;21.21;nan;99469.31;5028819;28;20040;-65
2022/07/23 04:00:01;;;;;;;19.65;10.65;;;;;;;21.36;nan;99466.63;5059346;28;20040;-66
2022/07/23 04:02:28;;;;;;;16.90;12.35;;;;;;;21.49;nan;99463.31;5050094;28;20406;-72
2022/07/23 04:04:53;;;;;;;17.90;12.57;;;;;;;21.62;nan;99466.22;5015700;28;20135;-72
2022/07/23 04:07:18;;;;;;;19.75;12.10;;;;;;;21.74;nan;99472.91;5034277;28;20093;-72
2022/07/23 04:09:44;;;;;;;18.70;12.55;;;;;;;21.91;nan;99471.69;5051088;28;20096;-72
2022/07/23 04:12:09;;;;;;;17.88;10.57;;;;;;;22.09;nan;99464.06;5044209;28;20487;-75
2022/07/23 04:14:34;;;;;;;13.48;10.32;;;;;;;22.22;nan;99466.13;5055175;28;20450;-65
2022/07/23 04:16:59;;;;;;;20.05;11.38;;;;;;;22.33;nan;99464.78;5036330;28;20528;-65
2022/07/23 04:19:24;;;;;;;13.82;9.60;;;;;;;22.51;nan;99467.09;5032353;28;20051;-65
2022/07/23 04:22:03;;;;;;;18.38;9.88;;;;;;;22.74;nan;99471.34;5000852;28;20445;-64
2022/07/23 04:24:29;;;;;;;17.55;8.65;;;;;;;22.93;nan;99479.94;5041371;28;20097;-70
2022/07/23 04:26:54;;;;;;;15.40;8.65;;;;;;;23.10;nan;99473.22;5033636;28;20044;-70
2022/07/23 04:29:19;;;;;;;12.77;8.50;;;;;;;23.27;nan;99471.06;5038083;28;20059;-65
2022/07/23 04:31:44;;;;;;;16.10;8.25;;;;;;;23.44;nan;99477.94;5053421;28;20060;-71
2022/07/23 04:34:08;;;;;;;15.38;8.02;;;;;;;23.64;nan;99481.69;5036520;28;20040;-68
2022/07/23 04:36:33;;;;;;;19.42;7.38;;;;;;;23.85;nan;99483.50;5053415;28;20051;-66
2022/07/23 04:38:58;;;;;;;19.45;8.10;;;;;;;23.97;nan;99471.03;5050956;28;20559;-66
2022/07/23 04:41:24;;;;;;;22.15;8.05;;;;;;;24.29;nan;99479.63;5015945;28;20048;-68
2022/07/23 04:43:49;;;;;;;17.83;7.55;;;;;;;24.63;nan;99481.44;5015881;28;20042;-67
2022/07/23 04:46:13;;;;;;;21.55;8.30;;;;;;;24.93;nan;99477.41;5016048;28;20136;-67
2022/07/23 04:48:44;;;;;;;18.52;8.30;;;;;;;25.27;nan;99481.88;5015950;28;20123;-67
2022/07/23 04:51:09;;;;;;;16.77;7.85;;;;;;;25.63;nan;99474.13;4966791;28;20139;-66
2022/07/23 04:53:36;;;;;;;18.05;8.15;;;;;;;26.05;nan;99474.72;4999424;28;20131;-66
2022/07/23 04:56:01;;;;;;;15.75;8.00;;;;;;;26.47;nan;99470.63;5034066;28;20049;-66
2022/07/23 04:58:27;;;;;;;11.23;6.75;;;;;;;26.89;nan;99462.84;5016377;28;20044;-66
2022/07/23 05:00:52;;;;;;;14.65;7.47;;;;;;;27.27;nan;99457.38;5016171;28;20059;-66
2022/07/23 05:03:17;;;;;;;11.20;7.53;;;;;;;27.61;nan;99453.34;5016356;28;20032;-67
2022/07/23 05:05:44;;;;;;;16.25;7.38;;;;;;;27.91;nan;99450.72;5016494;28;20048;-66
2022/07/23 05:08:13;;;;;;;10.52;6.90;;;;;;;28.19;nan;99459.31;4983492;28;20036;-66
2022/07/23 05:10:39;;;;;;;14.38;7.25;;;;;;;28.46;nan;99446.94;5018754;28;20054;-66
2022/07/23 05:13:04;;;;;;;13.77;7.15;;;;;;;28.69;nan;99453.63;5005720;28;20044;-66
2022/07/23 05:15:29;;;;;;;14.30;6.72;;;;;;;28.87;nan;99457.22;5021912;28;20040;-65
2022/07/23 05:17:54;;;;;;;13.13;7.18;;;;;;;29.05;nan;99453.56;5020892;28;20098;-66
2022/07/23 05:20:19;;;;;;;18.08;8.13;;;;;;;29.21;nan;99454.81;5016555;28;20055;-66
2022/07/23 05:22:43;;;;;;;12.35;7.25;;;;;;;29.37;nan;99456.91;5016186;28;20036;-68
2022/07/23 05:25:09;;;;;;;13.23;7.43;;;;;;;29.54;nan;99460.66;5018157;28;20131;-66
2022/07/23 05:27:34;;;;;;;11.68;7.25;;;;;;;29.63;nan;99452.06;5019649;28;20098;-66
2022/07/23 05:29:59;;;;;;;14.98;7.88;;;;;;;29.72;nan;99465.19;5019201;28;20060;-66
2022/07/23 05:32:24;;;;;;;24.80;7.90;;;;;;;29.71;nan;99459.94;5019325;28;20040;-66
2022/07/23 05:34:57;;;;;;;15.02;8.23;;;;;;;29.84;nan;99465.19;5002731;28;20044;-65
2022/07/23 05:37:22;;;;;;;18.98;9.18;;;;;;;30.08;nan;99464.16;5019339;28;20047;-66
2022/07/23 05:39:47;;;;;;;13.27;7.38;;;;;;;30.35;nan;99469.97;5019333;28;20094;-65
2022/07/23 05:42:12;;;;;;;12.25;7.25;;;;;;;30.66;nan;99461.31;5037239;28;20526;-65
2022/07/23 05:44:37;;;;;;;15.82;7.30;;;;;;;30.93;nan;99464.31;5002589;28;20040;-65
2022/07/23 05:47:03;;;;;;;14.05;7.22;;;;;;;31.25;nan;99458.34;5019312;28;20063;-65
2022/07/23 05:49:28;;;;;;;11.40;7.38;;;;;;;31.49;nan;99536.19;5019425;28;20136;-66
2022/07/23 05:52:18;;;;;;;17.77;7.93;;;;;;;31.82;nan;99453.53;4955938;28;20050;-66
2022/07/23 05:55:16;;;;;;;10.85;7.32;;;;;;;32.18;nan;99454.06;4956215;28;20436;-66
2022/07/23 05:57:41;;;;;;;13.68;7.18;;;;;;;32.48;nan;99448.97;4924057;28;20073;-67
2022/07/23 06:00:08;;;;;;;15.43;10.40;;;;;;;32.89;nan;99458.56;4940341;28;20053;-66
2022/07/23 06:02:39;;;;;;;15.93;9.00;;;;;;;33.37;nan;99448.59;4956126;28;20042;-66
2022/07/23 06:05:05;;;;;;;16.15;8.18;;;;;;;33.88;nan;99455.38;4956220;28;20057;-66
2022/07/23 06:07:31;;;;;;;11.52;7.82;;;;;;;34.36;nan;99478.38;4941135;28;20046;-66
2022/07/23 06:09:56;;;;;;;10.60;7.97;;;;;;;34.82;nan;99449.81;4939650;28;20149;-68
2022/07/23 06:12:21;;;;;;;17.95;7.43;;;;;;;35.31;nan;99460.47;4939588;28;20038;-66
2022/07/23 06:14:48;;;;;;;9.40;7.65;;;;;;;35.91;nan;99464.34;4955992;28;20101;-66
2022/07/23 06:17:14;;;;;;;32.47;21.92;;;;;;;36.48;nan;99529.78;4939884;28;20058;-65
2022/07/23 06:19:39;;;;;;;13.82;9.07;;;;;;;37.13;nan;99458.38;4955858;28;20052;-65
2022/07/23 06:22:04;;;;;;;13.88;7.97;;;;;;;37.76;nan;99526.94;4939233;28;20054;-66
2022/07/23 06:24:28;;;;;;;10.25;7.50;;;;;;;38.40;nan;99563.94;4939464;28;20050;-66
2022/07/23 06:26:53;;;;;;;9.25;7.70;;;;;;;39.07;nan;99534.22;4939615;28;20056;-66
2022/07/23 06:29:18;;;;;;;8.90;7.43;;;;;;;39.49;nan;99531.41;4985390;28;20123;-66
2022/07/23 06:31:43;;;;;;;10.32;8.07;;;;;;;39.67;nan;99538.09;5018790;28;20044;-66
2022/07/23 06:34:08;;;;;;;11.00;7.97;;;;;;;39.91;nan;99529.66;5018701;28;20044;-66
2022/07/23 06:36:34;;;;;;;9.60;8.60;;;;;;;40.22;nan;99522.38;5018344;28;20053;-65
2022/07/23 06:38:59;;;;;;;12.10;8.40;;;;;;;40.51;nan;99441.09;5036385;28;20043;-66
2022/07/23 06:41:23;;;;;;;10.32;8.48;;;;;;;40.81;nan;99447.19;5002106;28;20517;-68
2022/07/23 06:43:49;;;;;;;13.57;8.50;;;;;;;41.18;nan;99441.31;5001798;28;20392;-67
2022/07/23 06:46:15;;;;;;;13.48;9.18;;;;;;;41.58;nan;99442.28;5018390;28;20052;-68
2022/07/23 06:48:40;;;;;;;12.43;7.97;;;;;;;41.89;nan;99447.91;5018136;28;20051;-62
2022/07/23 06:51:05;;;;;;;11.65;8.82;;;;;;;42.18;nan;99450.25;5035895;28;20036;-62
2022/07/23 06:53:30;;;;;;;13.25;8.43;;;;;;;42.42;nan;99449.06;5036959;28;20051;-63
2022/07/23 06:55:55;;;;;;;16.67;9.38;;;;;;;42.78;nan;99451.66;5037031;28;20044;-62
2022/07/23 06:58:20;;;;;;;11.25;8.52;;;;;;;43.12;nan;99457.28;5018670;28;20048;-62
2022/07/23 07:00:44;;;;;;;11.15;8.65;;;;;;;43.28;nan;99452.84;5002450;28;20040;-62
2022/07/23 07:03:09;;;;;;;11.50;8.55;;;;;;;43.51;nan;99445.09;5036791;28;20036;-62
2022/07/23 07:05:34;;;;;;;16.00;12.18;;;;;;;43.80;nan;99458.41;5036971;28;20036;-62
2022/07/23 07:07:59;;;;;;;10.77;8.77;;;;;;;44.10;nan;99450.94;5018242;28;20036;-62
2022/07/23 07:10:23;;;;;;;10.80;9.13;;;;;;;44.23;nan;99458.34;5036959;28;20105;-63
2022/07/23 07:12:48;;;;;;;13.07;9.25;;;;;;;44.37;nan;99511.53;5037943;28;20044;-62
2022/07/23 07:15:13;;;;;;;12.05;9.80;;;;;;;44.09;nan;99450.13;5037885;28;20101;-62
2022/07/23 07:17:39;;;;;;;12.55;9.30;;;;;;;43.47;nan;99444.09;5018669;28;20100;-62
2022/07/23 07:20:04;;;;;;;18.23;10.63;;;;;;;43.06;nan;99445.41;5036206;28;20052;-63
2022/07/23 07:22:29;;;;;;;10.52;9.52;;;;;;;42.94;nan;99448.03;5035400;28;20545;-61
2022/07/23 07:24:54;;;;;;;15.57;10.20;;;;;;;42.99;nan;99447.88;5035425;28;20051;-65
2022/07/23 07:27:19;;;;;;;15.73;9.85;;;;;;;42.93;nan;99449.19;5017523;28;20044;-66
2022/07/23 07:29:44;;;;;;;14.50;10.10;;;;;;;42.69;nan;99444.00;5035018;28;20079;-66
2022/07/23 07:32:09;;;;;;;14.43;9.18;;;;;;;42.99;nan;99447.06;5038288;28;20044;-66
2022/07/23 07:34:34;;;;;;;13.10;9.60;;;;;;;43.79;nan;99456.81;5041020;28;20115;-67
2022/07/23 07:36:59;;;;;;;11.07;9.85;;;;;;;44.58;nan;99444.13;5035856;28;20510;-66
2022/07/23 07:39:23;;;;;;;13.70;10.35;;;;;;;45.31;nan;99444.63;5036034;28;20470;-66
2022/07/23 07:41:48;;;;;;;17.80;11.00;;;;;;;45.97;nan;99451.13;5036845;28;20043;-66
2022/07/23 07:44:13;;;;;;;10.60;9.50;;;;;;;46.57;nan;99452.38;5017800;28;20040;-66
2022/07/23 07:46:38;;;;;;;14.27;11.20;;;;;;;47.06;nan;99441.91;5017975;28;20040;-65
2022/07/23 07:49:02;;;;;;;12.77;11.60;;;;;;;47.61;nan;99455.25;5036906;28;20044;-66
2022/07/23 07:51:28;;;;;;;11.95;10.95;;;;;;;48.05;nan;99446.75;5035889;28;20037;-66
2022/07/23 07:53:53;;;;;;;15.88;11.95;;;;;;;48.47;nan;99451.91;5035398;28;20045;-67
2022/07/23 07:56:18;;;;;;;14.82;13.30;;;;;;;49.34;nan;99454.34;5035295;28;20048;-66
2022/07/23 07:58:42;;;;;;;16.70;14.95;;;;;;;50.22;nan;99458.16;5035452;28;20119;-66
2022/07/23 08:01:07;;;;;;;15.43;14.05;;;;;;;50.94;nan;99458.09;5035498;28;20131;-65
2022/07/23 08:03:32;;;;;;;18.00;16.50;;;;;;;51.53;nan;99516.97;5035296;28;20515;-66
2022/07/23 08:05:57;;;;;;;17.13;15.25;;;;;;;51.64;nan;99463.13;5017831;28;20466;-66
2022/07/23 08:08:21;;;;;;;18.20;16.80;;;;;;;49.86;nan;99451.00;5035195;28;20048;-62
2022/07/23 08:10:46;;;;;;;18.85;14.65;;;;;;;47.52;nan;99448.09;5034993;28;20044;-63
2022/07/23 08:13:15;;;;;;;22.02;14.50;;;;;;;44.66;nan;99438.47;5033819;28;20037;-63
2022/07/23 08:15:40;;;;;;;13.75;12.32;;;;;;;41.63;nan;99433.78;5034840;28;20093;-62
2022/07/23 08:18:05;;;;;;;15.52;12.38;;;;;;;39.54;nan;99432.84;5034245;28;20122;-62
2022/07/23 08:20:29;;;;;;;14.18;10.55;;;;;;;38.41;nan;99434.69;5034588;28;20032;-62
2022/07/23 08:23:08;;;;;;;10.95;9.85;;;;;;;37.47;nan;99423.13;5034121;28;20495;-63
2022/07/23 08:25:38;;;;;;;10.02;8.77;;;;;;;36.56;nan;99423.66;5016344;28;20040;-62
2022/07/23 08:28:06;;;;;;;11.52;9.82;;;;;;;37.57;nan;99417.47;5034860;28;20044;-64
2022/07/23 08:30:31;;;;;;;11.27;9.40;;;;;;;40.14;nan;99416.97;5034848;28;20047;-62
2022/07/23 08:33:02;;;;;;;10.35;9.25;;;;;;;42.73;nan;99433.78;5035149;28;20144;-62
2022/07/23 08:35:35;;;;;;;15.25;10.45;;;;;;;45.01;nan;99421.34;5034896;28;20046;-62
2022/07/23 08:38:02;;;;;;;13.38;10.50;;;;;;;46.73;nan;99430.78;5016073;28;20440;-61
2022/07/23 08:40:30;;;;;;;13.88;12.35;;;;;;;48.03;nan;99435.81;5016254;28;20063;-62
2022/07/23 08:42:55;;;;;;;13.48;12.18;;;;;;;48.34;nan;99434.19;5019774;28;20040;-62
2022/07/23 08:45:22;;;;;;;12.80;11.65;;;;;;;47.23;nan;99437.94;5054404;28;20043;-63
2022/07/23 08:48:00;;;;;;;13.23;12.07;;;;;;;45.65;nan;99426.59;5024060;28;20090;-64
2022/07/23 08:50:25;;;;;;;12.82;11.50;;;;;;;43.61;nan;99419.50;5039659;28;20066;-62
2022/07/23 08:52:51;;;;;;;12.52;11.43;;;;;;;44.11;nan;99416.91;5057389;28;20123;-63
2022/07/23 08:55:19;;;;;;;13.77;12.07;;;;;;;45.88;nan;99419.38;5038900;28;20044;-62
2022/07/23 08:57:47;;;;;;;14.38;13.13;;;;;;;47.23;nan;99415.34;5005058;28;20044;-62
2022/07/23 09:00:12;;;;;;;13.90;12.80;;;;;;;48.05;nan;99418.50;5058050;28;20610;-63
2022/07/23 09:02:41;;;;;;;15.57;14.38;;;;;;;48.90;nan;99429.09;5057944;28;20039;-62
2022/07/23 09:05:08;;;;;;;16.88;15.63;;;;;;;49.63;nan;99424.59;5058791;28;20044;-63
2022/07/23 09:07:33;;;;;;;15.90;14.70;;;;;;;50.42;nan;99425.66;5039752;28;20054;-64
2022/07/23 09:10:11;;;;;;;19.27;17.63;;;;;;;51.40;nan;99436.00;5058406;28;20554;-62
2022/07/23 09:12:36;;;;;;;18.77;17.38;;;;;;;50.77;nan;99421.75;5041506;28;20067;-63
2022/07/23 09:15:07;;;;;;;17.90;16.70;;;;;;;49.51;nan;99419.09;5042089;28;20044;-64
2022/07/23 09:17:42;;;;;;;17.10;15.70;;;;;;;49.42;nan;99413.66;5060154;28;20071;-64
2022/07/23 09:20:12;;;;;;;19.05;17.52;;;;;;;50.04;nan;99405.94;5060320;28;20093;-63
2022/07/23 09:22:38;;;;;;;23.15;21.40;;;;;;;50.98;nan;99444.78;5041215;28;20074;-62
2022/07/23 09:25:04;;;;;;;22.33;20.27;;;;;;;52.06;nan;99456.25;5060192;28;20047;-63
2022/07/23 09:27:54;;;;;;;21.63;19.70;;;;;;;52.34;nan;99456.53;5058537;28;20083;-63
2022/07/23 09:30:24;;;;;;;25.50;23.80;;;;;;;51.96;nan;99465.50;5059157;28;20099;-63
2022/07/23 09:33:10;;;;;;;24.17;22.33;;;;;;;52.69;nan;99458.88;5060131;28;20784;-63
2022/07/23 09:35:54;;;;;;;25.85;24.10;;;;;;;52.31;nan;99448.78;5059843;28;20044;-64
2022/07/23 09:38:21;;;;;;;26.38;24.77;;;;;;;52.30;nan;99452.84;5040834;28;20067;-64
2022/07/23 09:40:46;;;;;;;26.90;24.98;;;;;;;53.21;nan;99451.06;5040199;28;20036;-63
2022/07/23 09:43:25;;;;;;;30.88;28.70;;;;;;;53.99;nan;99452.13;5039430;28;20116;-63
2022/07/23 09:45:50;;;;;;;32.92;31.05;;;;;;;54.82;nan;99452.97;5057098;28;20063;-64
2022/07/23 09:48:16;;;;;;;36.90;34.53;;;;;;;55.47;nan;99445.81;5057245;28;20078;-63
2022/07/23 09:50:43;;;;;;;36.05;33.92;;;;;;;54.46;nan;99426.47;5056920;28;20167;-64
2022/07/23 09:53:08;;;;;;;31.70;29.92;;;;;;;53.12;nan;99425.75;5056975;28;20036;-63
2022/07/23 09:55:38;;;;;;;28.85;26.67;;;;;;;51.14;nan;99414.13;5022072;28;20039;-64
2022/07/23 09:58:05;;;;;;;24.17;22.38;;;;;;;48.57;nan;99383.44;5038324;28;20130;-64
2022/07/23 10:00:32;;;;;;;36.72;33.45;;;;;;;46.55;nan;99372.94;5057464;28;20119;-62
2022/07/23 10:02:58;;;;;;;19.13;17.63;;;;;;;44.61;nan;99373.13;5056717;28;20043;-64
2022/07/23 10:05:28;;;;;;;14.20;12.90;;;;;;;42.74;nan;99354.13;5057059;28;20044;-62
2022/07/23 10:08:12;;;;;;;12.90;11.70;;;;;;;41.38;nan;99358.00;5056790;28;20043;-63
2022/07/23 10:10:56;;;;;;;13.27;12.07;;;;;;;41.74;nan;99361.53;5057562;28;20697;-66
2022/07/23 10:14:04;;;;;;;12.90;11.80;;;;;;;42.48;nan;99364.47;5057417;28;20044;-64
2022/07/23 10:16:51;;;;;;;14.48;11.57;;;;;;;41.56;nan;99349.41;5039004;28;20032;-67
2022/07/23 10:19:18;;;;;;;12.75;11.63;;;;;;;40.30;nan;99353.25;5058152;28;20048;-68
2022/07/23 10:21:54;;;;;;;14.02;12.60;;;;;;;40.44;nan;99356.84;5040089;28;20536;-67
2022/07/23 10:24:56;;;;;;;11.15;10.05;;;;;;;40.56;nan;99345.94;5058346;28;20039;-67
2022/07/23 10:27:54;;;;;;;13.55;12.15;;;;;;;40.19;nan;99348.97;5058021;28;20502;-67
2022/07/23 10:30:47;;;;;;;11.85;10.68;;;;;;;41.84;nan;99341.66;5056624;28;20064;-67
2022/07/23 10:33:21;;;;;;;11.90;10.88;;;;;;;44.24;nan;99341.94;5056157;28;20054;-67
2022/07/23 10:35:59;;;;;;;14.95;12.85;;;;;;;44.92;nan;99344.66;5056525;28;20105;-68
2022/07/23 10:38:29;;;;;;;14.55;13.18;;;;;;;43.50;nan;99349.97;5034141;28;20056;-67
2022/07/23 10:41:02;;;;;;;13.40;12.02;;;;;;;41.81;nan;99339.50;5033713;28;20052;-67
2022/07/23 10:43:29;;;;;;;11.63;10.35;;;;;;;40.01;nan;99324.81;5034009;28;20241;-68
2022/07/23 10:45:55;;;;;;;12.18;10.98;;;;;;;38.62;nan;99321.06;5014217;28;20041;-64
2022/07/23 10:48:27;;;;;;;13.70;11.55;;;;;;;37.60;nan;99316.72;5013223;28;20064;-62
2022/07/23 10:51:14;;;;;;;14.03;10.50;;;;;;;37.00;nan;99313.38;5013820;28;20041;-63
2022/07/23 10:53:51;;;;;;;12.90;10.63;;;;;;;36.35;nan;99312.69;5013332;28;20055;-62
2022/07/23 10:56:17;;;;;;;9.85;8.85;;;;;;;35.75;nan;99312.94;4996427;28;20549;-64
2022/07/23 10:58:50;;;;;;;11.60;9.98;;;;;;;35.60;nan;99309.06;5013657;28;20511;-64
2022/07/23 11:01:37;;;;;;;13.80;10.05;;;;;;;35.49;nan;99306.59;4980503;28;20047;-62
2022/07/23 11:04:07;;;;;;;11.30;9.10;;;;;;;34.79;nan;99308.25;4997681;28;20135;-61
2022/07/23 11:06:47;;;;;;;11.63;9.40;;;;;;;34.62;nan;99293.81;4996714;28;20519;-63
2022/07/23 11:09:30;;;;;;;11.48;9.50;;;;;;;34.30;nan;99297.63;5021775;28;20592;-62
2022/07/23 11:12:24;;;;;;;11.98;9.45;;;;;;;34.06;nan;99297.25;5017634;28;20041;-63
2022/07/23 11:15:11;;;;;;;12.30;8.80;;;;;;;33.67;nan;99305.06;5029619;28;20367;-61
2022/07/23 11:17:56;;;;;;;11.10;9.27;;;;;;;33.21;nan;99300.31;5035677;28;20048;-62
2022/07/23 11:20:24;;;;;;;10.90;8.52;;;;;;;32.63;nan;99297.31;5017348;28;20052;-62
2022/07/23 11:22:50;;;;;;;14.02;9.23;;;;;;;32.34;nan;99295.91;5035106;28;20055;-68
2022/07/23 11:25:21;;;;;;;10.32;9.32;;;;;;;32.25;nan;99286.44;5018029;28;20098;-68
2022/07/23 11:27:47;;;;;;;15.23;10.15;;;;;;;32.14;nan;99290.97;5034988;28;20411;-65
2022/07/23 11:30:27;;;;;;;11.65;9.45;;;;;;;32.31;nan;99297.25;5034949;28;20143;-65
2022/07/23 11:32:54;;;;;;;11.25;9.48;;;;;;;32.16;nan;99291.56;5018072;28;20072;-60
2022/07/23 11:35:27;;;;;;;12.88;9.60;;;;;;;32.15;nan;99295.41;5001636;28;20042;-66
2022/07/23 11:37:58;;;;;;;16.15;10.25;;;;;;;31.88;nan;99287.06;5036754;28;20041;-72
2022/07/23 11:40:22;;;;;;;11.32;9.77;;;;;;;31.60;nan;99281.72;5036982;28;20044;-73
2022/07/23 11:42:53;;;;;;;12.68;9.52;;;;;;;31.36;nan;99295.72;5038595;28;20040;-73
2022/07/23 11:45:18;;;;;;;13.50;9.00;;;;;;;31.01;nan;99278.63;5002432;28;20127;-73
2022/07/23 11:47:42;;;;;;;12.13;9.55;;;;;;;30.73;nan;99278.69;5018395;28;20051;-70
2022/07/23 11:50:11;;;;;;;11.88;9.35;;;;;;;30.48;nan;99279.88;5002687;28;20124;-70